Terminal Aerodrome Forecast
Issued by NWS

Home | Current Version | Previous Version | Text Only | Print | Product List | Glossary On
Versions: 1 2 3 4 5 6 7 8 9 10 11 12 13 14 15 16 17 18
000
FTUS43 KPAH 201132
TAFCGI
TAF
KCGI 201132Z 2012/2112 05009KT P6SM SCT050 BKN100
      TEMPO 2013/2014 -SHRA BKN050
     FM201600 06007KT 5SM -SHRA BR SCT025 OVC060
     FM202300 02008KT 5SM BR BKN014 OVC045
     FM210000 36007KT 4SM BR OVC015=

USA.gov is the U.S. government's official web portal to all federal, state and local government web resources and services.